createdAt,value
2022-09-15T00:01:28.565Z,1.70
2022-09-15T00:03:58.301Z,1.80
2022-09-15T00:06:25.909Z,1.98
2022-09-15T00:08:54.500Z,1.80
2022-09-15T00:11:26.181Z,1.90
2022-09-15T00:13:54.114Z,2.00
2022-09-15T00:16:34.144Z,1.60
2022-09-15T00:19:08.028Z,1.77
2022-09-15T00:21:40.643Z,1.73
2022-09-15T00:24:08.364Z,1.95
2022-09-15T00:26:36.054Z,1.70
2022-09-15T00:29:06.079Z,1.92
2022-09-15T00:31:36.274Z,1.55
2022-09-15T00:34:04.117Z,1.70
2022-09-15T00:36:34.682Z,1.70
2022-09-15T00:39:04.752Z,1.70
2022-09-15T00:41:36.631Z,1.65
2022-09-15T00:44:19.655Z,1.70
2022-09-15T00:47:09.344Z,1.73
2022-09-15T00:49:46.943Z,1.50
2022-09-15T00:52:20.964Z,1.40
2022-09-15T00:55:05.726Z,1.30
2022-09-15T00:57:41.685Z,1.48
2022-09-15T01:00:11.609Z,1.75
2022-09-15T01:02:39.705Z,1.90
2022-09-15T01:05:11.851Z,1.83
2022-09-15T01:07:52.089Z,1.58
2022-09-15T01:10:23.860Z,1.88
2022-09-15T01:13:00.162Z,1.83
2022-09-15T01:15:59.595Z,1.77
2022-09-15T01:18:49.568Z,1.55
2022-09-15T01:21:24.632Z,1.65
2022-09-15T01:24:21.992Z,1.60
2022-09-15T01:27:24.166Z,1.70
2022-09-15T01:30:02.905Z,1.70
2022-09-15T01:33:09.197Z,2.05
2022-09-15T01:36:05.952Z,1.73
2022-09-15T01:38:57.993Z,1.80
2022-09-15T01:41:37.511Z,2.20
2022-09-15T01:44:13.703Z,1.73
2022-09-15T01:46:49.946Z,1.90
2022-09-15T01:49:22.973Z,1.70
2022-09-15T01:52:00.229Z,1.90
2022-09-15T01:54:31.962Z,1.55
2022-09-15T01:57:03.448Z,1.48
2022-09-15T01:59:33.790Z,2.40
2022-09-15T02:02:24.188Z,1.80
2022-09-15T02:04:58.941Z,1.90
2022-09-15T02:07:45.449Z,1.42
2022-09-15T02:10:31.896Z,1.60
2022-09-15T02:13:07.265Z,1.75
2022-09-15T02:15:48.512Z,1.90
2022-09-15T02:18:25.521Z,1.70
2022-09-15T02:21:04.629Z,1.50
2022-09-15T02:23:39.444Z,1.70
2022-09-15T02:26:11.160Z,1.55
2022-09-15T02:28:44.780Z,1.77
2022-09-15T02:31:15.069Z,1.80
2022-09-15T02:33:53.079Z,1.38
2022-09-15T02:36:23.049Z,1.73
2022-09-15T02:38:59.346Z,1.75
2022-09-15T02:41:29.101Z,1.60
2022-09-15T02:43:56.571Z,1.52
2022-09-15T02:46:34.142Z,1.70
2022-09-15T02:49:01.818Z,1.60
2022-09-15T02:51:29.598Z,1.52
2022-09-15T02:54:00.720Z,1.83
2022-09-15T02:56:28.426Z,1.45
2022-09-15T02:58:58.750Z,1.73
2022-09-15T03:01:34.367Z,2.33
2022-09-15T03:04:02.669Z,1.77
2022-09-15T03:06:36.449Z,1.60
2022-09-15T03:09:07.402Z,1.58
2022-09-15T03:11:35.175Z,1.80
2022-09-15T03:14:04.589Z,1.80
2022-09-15T03:16:34.320Z,1.95
2022-09-15T03:19:02.143Z,1.63
2022-09-15T03:21:29.791Z,1.63
2022-09-15T03:23:57.871Z,1.60
2022-09-15T03:26:25.411Z,1.80
2022-09-15T03:28:53.261Z,1.40
2022-09-15T03:31:20.766Z,1.65
2022-09-15T03:33:48.346Z,1.40
2022-09-15T03:36:15.781Z,1.40
2022-09-15T03:38:42.945Z,1.60
2022-09-15T03:41:11.389Z,1.50
2022-09-15T03:43:38.768Z,1.60
2022-09-15T03:46:06.684Z,1.30
2022-09-15T03:48:34.972Z,1.70
2022-09-15T03:51:06.449Z,1.50
2022-09-15T03:53:34.369Z,1.60
2022-09-15T03:56:09.630Z,1.50
2022-09-15T03:58:36.815Z,2.13
2022-09-15T04:01:04.077Z,1.52
2022-09-15T04:03:31.591Z,1.27
2022-09-15T04:05:58.762Z,1.58
2022-09-15T04:08:25.883Z,1.40
2022-09-15T04:10:54.693Z,1.67
2022-09-15T04:13:26.711Z,1.55
2022-09-15T04:16:02.949Z,1.45
2022-09-15T04:18:30.200Z,1.17
2022-09-15T04:21:05.871Z,1.60
2022-09-15T04:23:33.215Z,1.70
2022-09-15T04:26:02.055Z,1.40
2022-09-15T04:28:31.038Z,1.42
2022-09-15T04:31:08.978Z,1.40
2022-09-15T04:33:36.656Z,1.20
2022-09-15T04:36:11.711Z,1.17
2022-09-15T04:38:38.945Z,1.48
2022-09-15T04:41:06.239Z,1.08
2022-09-15T04:43:33.626Z,1.45
2022-09-15T04:46:00.838Z,1.30
2022-09-15T04:48:27.994Z,1.15
2022-09-15T04:50:56.790Z,1.52
2022-09-15T04:53:23.931Z,1.13
2022-09-15T04:55:51.066Z,1.25
2022-09-15T04:58:18.183Z,1.10
2022-09-15T05:00:45.669Z,1.10
2022-09-15T05:03:13.714Z,1.20
2022-09-15T05:05:41.135Z,0.90
2022-09-15T05:08:08.345Z,1.13
2022-09-15T05:10:35.651Z,1.00
2022-09-15T05:13:02.829Z,1.20
2022-09-15T05:15:29.966Z,1.10
2022-09-15T05:17:58.059Z,0.98
2022-09-15T05:20:26.030Z,1.02
2022-09-15T05:22:53.165Z,1.10
2022-09-15T05:25:20.350Z,1.15
2022-09-15T05:27:47.480Z,1.02
2022-09-15T05:30:36.717Z,1.00
2022-09-15T05:33:01.851Z,1.05
2022-09-15T05:35:29.001Z,0.90
2022-09-15T05:37:56.159Z,1.20
2022-09-15T05:40:23.420Z,1.20
2022-09-15T05:42:50.669Z,1.00
2022-09-15T05:45:17.798Z,0.93
2022-09-15T05:47:44.953Z,1.17
2022-09-15T05:50:12.151Z,1.10
2022-09-15T05:52:39.313Z,0.90
2022-09-15T05:55:06.664Z,1.00
2022-09-15T05:57:33.795Z,1.00
2022-09-15T06:00:00.990Z,0.85
2022-09-15T06:02:28.260Z,0.88
2022-09-15T06:04:55.441Z,0.90
2022-09-15T06:07:22.587Z,1.00
2022-09-15T06:09:52.432Z,1.00
2022-09-15T06:12:19.648Z,1.00
2022-09-15T06:14:50.351Z,1.00
2022-09-15T06:17:17.730Z,1.17
2022-09-15T06:19:45.591Z,1.00
2022-09-15T06:22:13.454Z,1.13
2022-09-15T06:24:40.609Z,1.00
2022-09-15T06:27:07.798Z,0.75
2022-09-15T06:29:37.035Z,0.90
2022-09-15T06:32:11.958Z,1.20
2022-09-15T06:34:42.112Z,0.95
2022-09-15T06:37:09.551Z,1.30
2022-09-15T06:39:37.223Z,1.10
2022-09-15T06:42:05.844Z,1.40
2022-09-15T06:44:35.639Z,1.23
2022-09-15T06:47:07.265Z,1.25
2022-09-15T06:49:35.089Z,1.00
2022-09-15T06:52:07.920Z,1.10
2022-09-15T06:54:37.769Z,0.95
2022-09-15T06:57:06.456Z,1.02
2022-09-15T06:59:34.000Z,1.10
2022-09-15T07:02:05.367Z,0.90
2022-09-15T07:04:36.947Z,1.20
2022-09-15T07:07:10.805Z,1.00
2022-09-15T07:09:41.319Z,1.00
2022-09-15T07:12:10.093Z,1.10
2022-09-15T07:14:37.519Z,1.00
2022-09-15T07:17:13.946Z,1.17
2022-09-15T07:19:46.158Z,1.10
2022-09-15T07:22:19.483Z,1.13
2022-09-15T07:24:46.717Z,1.10
2022-09-15T07:27:16.944Z,1.30
2022-09-15T07:29:48.078Z,1.30
2022-09-15T07:32:18.300Z,1.00
2022-09-15T07:34:45.678Z,1.02
2022-09-15T07:37:12.914Z,1.02
2022-09-15T07:39:40.057Z,1.27
2022-09-15T07:42:07.246Z,1.25
2022-09-15T07:44:34.571Z,1.58
2022-09-15T07:47:02.019Z,1.20
2022-09-15T07:49:36.970Z,1.20
2022-09-15T07:52:06.982Z,1.30
2022-09-15T07:54:34.340Z,1.15
2022-09-15T07:57:02.200Z,1.15
2022-09-15T07:59:29.523Z,0.98
2022-09-15T08:01:56.840Z,1.40
2022-09-15T08:04:24.349Z,1.05
2022-09-15T08:06:52.712Z,1.50
2022-09-15T08:09:20.707Z,1.02
2022-09-15T08:11:47.983Z,1.20
2022-09-15T08:14:15.164Z,1.20
2022-09-15T08:16:42.326Z,1.20
2022-09-15T08:19:09.534Z,1.38
2022-09-15T08:21:36.912Z,1.27
2022-09-15T08:24:04.133Z,1.17
2022-09-15T08:26:31.430Z,1.30
2022-09-15T08:28:59.214Z,1.42
2022-09-15T08:31:26.684Z,1.10
2022-09-15T08:33:55.012Z,1.35
2022-09-15T08:36:22.333Z,1.30
2022-09-15T08:38:49.524Z,1.15
2022-09-15T08:41:25.511Z,1.10
2022-09-15T08:44:15.888Z,1.13
2022-09-15T08:46:53.482Z,1.45
2022-09-15T08:49:51.105Z,1.00
2022-09-15T08:53:06.773Z,1.23
2022-09-15T08:55:36.632Z,0.90
2022-09-15T08:58:15.042Z,1.10
2022-09-15T09:00:42.431Z,1.30
2022-09-15T09:03:28.180Z,1.30
2022-09-15T09:06:17.303Z,1.25
2022-09-15T09:09:29.919Z,1.20
2022-09-15T09:12:34.746Z,1.40
2022-09-15T09:15:08.112Z,1.27
2022-09-15T09:17:42.849Z,1.27
2022-09-15T09:20:34.694Z,1.38
2022-09-15T09:23:02.633Z,1.10
2022-09-15T09:25:29.820Z,1.40
2022-09-15T09:27:58.261Z,1.40
2022-09-15T09:30:26.021Z,1.30
2022-09-15T09:33:15.126Z,1.35
2022-09-15T09:35:47.273Z,1.17
2022-09-15T09:38:27.235Z,1.40
2022-09-15T09:40:56.586Z,1.50
2022-09-15T09:43:28.374Z,1.40
2022-09-15T09:45:55.625Z,1.20
2022-09-15T09:48:24.330Z,1.45
2022-09-15T09:50:51.569Z,1.50
2022-09-15T09:53:31.390Z,1.70
2022-09-15T09:56:23.103Z,1.20
2022-09-15T09:58:50.418Z,1.15
2022-09-15T10:01:19.521Z,1.10
2022-09-15T10:03:46.944Z,1.10
2022-09-15T10:06:19.222Z,1.15
2022-09-15T10:08:57.872Z,1.38
2022-09-15T10:11:43.428Z,1.40
2022-09-15T10:14:20.968Z,0.88
2022-09-15T10:17:01.764Z,1.00
2022-09-15T10:19:30.745Z,0.73
2022-09-15T10:21:58.019Z,1.00
2022-09-15T10:24:31.325Z,0.90
2022-09-15T10:27:17.740Z,0.82
2022-09-15T10:29:45.356Z,1.08
2022-09-15T10:32:26.181Z,1.13
2022-09-15T10:35:04.745Z,1.08
2022-09-15T10:37:53.569Z,1.05
2022-09-15T10:40:34.502Z,1.00
2022-09-15T10:43:19.499Z,0.98
2022-09-15T10:45:48.868Z,0.90
2022-09-15T10:48:37.364Z,0.90
2022-09-15T10:51:10.386Z,0.95
2022-09-15T10:53:43.463Z,1.10
2022-09-15T10:56:30.407Z,1.05
2022-09-15T10:59:36.057Z,0.95
2022-09-15T11:02:25.017Z,1.20
2022-09-15T11:05:23.004Z,0.80
2022-09-15T11:08:05.237Z,1.02
2022-09-15T11:10:58.888Z,1.17
2022-09-15T11:13:36.115Z,1.10
2022-09-15T11:16:07.359Z,1.30
2022-09-15T11:18:44.723Z,1.25
2022-09-15T11:21:37.462Z,1.10
2022-09-15T11:24:17.242Z,1.50
2022-09-15T11:26:52.665Z,1.20
2022-09-15T11:29:21.101Z,1.25
2022-09-15T11:31:50.974Z,1.10
2022-09-15T11:34:26.093Z,1.10
2022-09-15T11:37:07.163Z,0.93
2022-09-15T11:39:37.726Z,1.15
2022-09-15T11:42:09.000Z,1.20
2022-09-15T11:44:41.366Z,1.23
2022-09-15T11:47:16.484Z,1.40
2022-09-15T11:49:49.453Z,1.20
2022-09-15T11:52:54.553Z,1.08
2022-09-15T11:55:43.255Z,1.10
2022-09-15T11:58:21.829Z,1.20
2022-09-15T12:01:03.243Z,1.10
2022-09-15T12:03:40.148Z,0.98
2022-09-15T12:06:26.930Z,1.15
2022-09-15T12:08:57.988Z,1.20
2022-09-15T12:11:27.216Z,1.20
2022-09-15T12:13:54.669Z,1.10
2022-09-15T12:16:21.923Z,1.40
2022-09-15T12:19:02.042Z,1.10
2022-09-15T12:21:50.904Z,1.02
2022-09-15T12:24:23.363Z,1.15
2022-09-15T12:26:50.725Z,1.08
2022-09-15T12:29:27.175Z,1.20
2022-09-15T12:32:17.454Z,1.20
2022-09-15T12:35:17.589Z,1.25
2022-09-15T12:37:49.357Z,0.93
2022-09-15T12:40:35.781Z,0.88
2022-09-15T12:43:13.197Z,1.05
2022-09-15T12:45:41.374Z,1.00
2022-09-15T12:48:13.601Z,0.93
2022-09-15T12:50:41.963Z,1.10
2022-09-15T12:53:19.015Z,0.93
2022-09-15T12:55:55.754Z,0.98
2022-09-15T12:58:54.651Z,0.90
2022-09-15T13:01:25.077Z,1.00
2022-09-15T13:03:57.643Z,0.93
2022-09-15T13:06:24.715Z,1.02
2022-09-15T13:09:18.675Z,0.93
2022-09-15T13:11:47.563Z,0.93
2022-09-15T13:14:22.675Z,0.90
2022-09-15T13:16:57.002Z,1.00
2022-09-15T13:22:12.754Z,0.88
2022-09-15T13:25:07.505Z,0.90
2022-09-15T13:27:38.730Z,1.10
2022-09-15T13:30:22.789Z,1.00
2022-09-15T13:32:59.274Z,1.25
2022-09-15T13:35:39.870Z,0.80
2022-09-15T13:38:38.880Z,0.60
2022-09-15T13:41:36.287Z,0.90
2022-09-15T13:44:48.679Z,1.00
2022-09-15T13:47:39.561Z,1.08
2022-09-15T13:50:13.211Z,0.82
2022-09-15T13:53:02.056Z,0.85
2022-09-15T13:55:32.033Z,0.90
2022-09-15T14:01:06.907Z,1.13
2022-09-15T14:03:54.649Z,1.10
2022-09-15T14:06:38.707Z,0.93
2022-09-15T14:09:14.999Z,1.05
2022-09-15T14:11:42.273Z,0.90
2022-09-15T14:14:27.595Z,0.90
2022-09-15T14:16:55.856Z,1.02
2022-09-15T14:19:33.260Z,0.93
2022-09-15T14:22:01.694Z,1.30
2022-09-15T14:24:30.608Z,0.90
2022-09-15T14:27:07.131Z,1.00
2022-09-15T14:29:34.297Z,1.20
2022-09-15T14:32:01.720Z,1.35
2022-09-15T14:34:31.267Z,0.95
2022-09-15T14:37:01.202Z,1.00
2022-09-15T14:39:28.361Z,0.95
2022-09-15T14:41:55.552Z,1.27
2022-09-15T14:47:27.700Z,1.25
2022-09-15T14:50:17.761Z,1.30
2022-09-15T14:53:26.416Z,1.15
2022-09-15T14:56:21.155Z,1.23
2022-09-15T14:58:49.670Z,0.95
2022-09-15T15:01:26.930Z,0.90
2022-09-15T15:04:16.478Z,0.77
2022-09-15T15:07:16.186Z,1.00
2022-09-15T15:09:50.277Z,0.57
2022-09-15T15:12:30.738Z,0.73
2022-09-15T15:14:58.012Z,0.90
2022-09-15T15:17:45.337Z,0.90
2022-09-15T15:20:14.912Z,0.80
2022-09-15T15:22:43.127Z,0.88
2022-09-15T15:25:37.214Z,1.00
2022-09-15T15:28:06.456Z,1.00
2022-09-15T15:30:36.450Z,1.02
2022-09-15T15:33:04.587Z,1.02
2022-09-15T15:35:32.835Z,1.08
2022-09-15T15:38:04.753Z,1.02
2022-09-15T15:40:32.258Z,1.10
2022-09-15T15:43:22.801Z,1.10
2022-09-15T15:45:58.623Z,1.38
2022-09-15T15:48:35.216Z,1.10
2022-09-15T15:51:07.671Z,0.98
2022-09-15T15:53:35.566Z,1.20
2022-09-15T15:56:03.125Z,1.15
2022-09-15T15:58:33.279Z,1.15
2022-09-15T16:01:00.521Z,1.25
2022-09-15T16:03:27.869Z,1.25
2022-09-15T16:05:59.474Z,1.23
2022-09-15T16:08:28.663Z,1.15
2022-09-15T16:10:55.814Z,1.25
2022-09-15T16:13:23.408Z,1.23
2022-09-15T16:15:52.127Z,1.48
2022-09-15T16:18:19.442Z,1.17
2022-09-15T16:20:46.849Z,1.20
2022-09-15T16:23:15.766Z,1.17
2022-09-15T16:25:55.863Z,1.27
2022-09-15T16:28:23.027Z,1.23
2022-09-15T16:30:50.237Z,1.92
2022-09-15T16:33:17.964Z,1.40
2022-09-15T16:35:52.963Z,1.63
2022-09-15T16:38:20.933Z,1.27
2022-09-15T16:40:49.637Z,1.55
2022-09-15T16:43:19.009Z,1.50
2022-09-15T16:45:46.171Z,1.70
2022-09-15T16:48:13.486Z,1.52
2022-09-15T16:50:50.338Z,1.73
2022-09-15T16:53:23.197Z,1.80
2022-09-15T16:55:51.530Z,1.52
2022-09-15T16:58:19.668Z,1.67
2022-09-15T17:00:51.601Z,2.13
2022-09-15T17:03:23.765Z,2.10
2022-09-15T17:05:52.171Z,2.20
2022-09-15T17:08:20.851Z,1.75
2022-09-15T17:10:48.231Z,1.95
2022-09-15T17:13:20.089Z,2.88
2022-09-15T17:15:47.760Z,2.22
2022-09-15T17:18:17.554Z,2.38
2022-09-15T17:20:45.443Z,2.30
2022-09-15T17:23:36.046Z,2.30
2022-09-15T17:26:05.153Z,2.33
2022-09-15T17:28:33.651Z,2.15
2022-09-15T17:31:02.483Z,2.70
2022-09-15T17:33:30.957Z,2.58
2022-09-15T17:35:58.807Z,2.47
2022-09-15T17:38:26.466Z,2.88
2022-09-15T17:40:55.366Z,3.10
2022-09-15T17:43:24.317Z,3.03
2022-09-15T17:45:51.698Z,2.78
2022-09-15T17:48:19.055Z,2.60
2022-09-15T17:50:48.492Z,2.75
2022-09-15T17:53:21.287Z,2.97
2022-09-15T17:55:49.437Z,2.80
2022-09-15T17:58:16.739Z,2.85
2022-09-15T18:00:44.357Z,3.00
2022-09-15T18:03:30.751Z,3.00
2022-09-15T18:05:58.991Z,3.30
2022-09-15T18:08:26.989Z,2.70
2022-09-15T18:10:54.465Z,2.78
2022-09-15T18:13:23.580Z,3.45
2022-09-15T18:15:50.893Z,2.83
2022-09-15T18:18:25.570Z,2.80
2022-09-15T18:20:54.600Z,3.30
2022-09-15T18:23:23.156Z,3.65
2022-09-15T18:25:50.636Z,4.00
2022-09-15T18:28:17.961Z,3.17
2022-09-15T18:30:46.843Z,3.42
2022-09-15T18:33:15.902Z,3.33
2022-09-15T18:35:43.610Z,3.08
2022-09-15T18:38:11.340Z,3.13
2022-09-15T18:40:38.720Z,3.40
2022-09-15T18:43:05.990Z,3.00
2022-09-15T18:45:33.149Z,3.25
2022-09-15T18:48:00.311Z,2.83
2022-09-15T18:50:27.625Z,2.92
2022-09-15T18:52:54.761Z,2.83
2022-09-15T18:55:22.524Z,2.88
2022-09-15T18:57:49.639Z,2.88
2022-09-15T19:00:19.222Z,3.50
2022-09-15T19:02:46.456Z,3.17
2022-09-15T19:05:16.757Z,3.20
2022-09-15T19:07:44.274Z,3.30
2022-09-15T19:10:12.237Z,2.80
2022-09-15T19:12:39.666Z,3.00
2022-09-15T19:15:10.855Z,3.10
2022-09-15T19:17:39.195Z,3.20
2022-09-15T19:20:07.148Z,2.90
2022-09-15T19:22:34.409Z,3.20
2022-09-15T19:25:01.561Z,2.97
2022-09-15T19:27:28.745Z,3.05
2022-09-15T19:29:55.911Z,3.30
2022-09-15T19:32:23.288Z,3.13
2022-09-15T19:34:50.485Z,3.28
2022-09-15T19:37:19.177Z,3.28
2022-09-15T19:39:47.414Z,3.28
2022-09-15T19:44:42.954Z,3.42
2022-09-15T19:47:10.443Z,3.60
2022-09-15T19:49:37.607Z,2.80
2022-09-15T19:52:06.445Z,3.78
2022-09-15T19:54:34.664Z,4.00
2022-09-15T19:57:02.073Z,4.00
2022-09-15T19:59:31.616Z,3.92
2022-09-15T20:01:59.824Z,3.47
2022-09-15T20:04:27.773Z,3.53
2022-09-15T20:06:54.907Z,3.60
2022-09-15T20:09:22.160Z,3.80
2022-09-15T20:11:49.303Z,3.45
2022-09-15T20:14:16.442Z,3.28
2022-09-15T20:16:43.648Z,3.47
2022-09-15T20:19:10.813Z,3.75
2022-09-15T20:21:49.722Z,4.10
2022-09-15T20:24:18.023Z,3.95
2022-09-15T20:26:45.146Z,3.90
2022-09-15T20:29:12.365Z,3.50
2022-09-15T20:31:39.522Z,3.80
2022-09-15T20:34:06.668Z,3.67
2022-09-15T20:36:35.938Z,3.67
2022-09-15T20:39:04.705Z,3.90
2022-09-15T20:41:31.973Z,3.50
2022-09-15T20:43:59.240Z,3.45
2022-09-15T20:46:26.555Z,3.80
2022-09-15T20:48:54.044Z,4.13
2022-09-15T20:51:25.621Z,3.80
2022-09-15T20:53:54.523Z,3.55
2022-09-15T20:56:24.861Z,4.05
2022-09-15T20:58:52.964Z,3.67
2022-09-15T21:01:34.053Z,3.78
2022-09-15T21:04:01.631Z,4.22
2022-09-15T21:06:28.866Z,3.60
2022-09-15T21:08:56.545Z,3.78
2022-09-15T21:11:24.351Z,3.60
2022-09-15T21:13:51.487Z,3.90
2022-09-15T21:16:20.567Z,3.88
2022-09-15T21:18:48.053Z,3.92
2022-09-15T21:21:20.569Z,3.85
2022-09-15T21:23:49.143Z,3.97
2022-09-15T21:26:17.087Z,3.85
2022-09-15T21:28:44.860Z,4.78
2022-09-15T21:31:16.700Z,3.78
2022-09-15T21:33:44.314Z,4.15
2022-09-15T21:36:15.165Z,4.00
2022-09-15T21:38:43.736Z,4.25
2022-09-15T21:41:13.669Z,4.10
2022-09-15T21:43:41.789Z,4.18
2022-09-15T21:46:16.757Z,4.28
2022-09-15T21:48:44.301Z,4.68
2022-09-15T21:51:11.897Z,5.28
2022-09-15T21:53:39.022Z,4.70
2022-09-15T21:56:08.390Z,4.72
2022-09-15T21:58:42.433Z,5.40
2022-09-15T22:01:11.572Z,4.88
2022-09-15T22:03:42.285Z,4.63
2022-09-15T22:06:10.646Z,5.28
2022-09-15T22:08:38.925Z,5.22
2022-09-15T22:11:06.423Z,5.00
2022-09-15T22:13:35.500Z,4.32
2022-09-15T22:16:07.714Z,5.20
2022-09-15T22:18:38.364Z,4.90
2022-09-15T22:21:09.567Z,5.30
2022-09-15T22:23:36.952Z,4.97
2022-09-15T22:26:04.728Z,5.20
2022-09-15T22:28:32.035Z,5.30
2022-09-15T22:30:59.933Z,4.38
2022-09-15T22:33:27.513Z,5.35
2022-09-15T22:35:54.764Z,5.05
2022-09-15T22:38:22.297Z,5.20
2022-09-15T22:40:49.476Z,5.45
2022-09-15T22:43:16.595Z,4.82
2022-09-15T22:45:43.824Z,5.00
2022-09-15T22:48:10.994Z,4.85
2022-09-15T22:50:38.185Z,5.00
2022-09-15T22:53:05.318Z,5.30
2022-09-15T22:55:32.445Z,5.25
2022-09-15T22:57:59.618Z,5.20
2022-09-15T23:00:27.135Z,5.07
2022-09-15T23:02:54.407Z,5.57
2022-09-15T23:05:21.548Z,5.60
2022-09-15T23:07:48.687Z,5.38
2022-09-15T23:10:16.078Z,5.20
2022-09-15T23:12:43.223Z,5.32
2022-09-15T23:15:10.877Z,5.18
2022-09-15T23:17:38.970Z,4.80
2022-09-15T23:20:06.391Z,5.20
2022-09-15T23:22:33.535Z,5.28
2022-09-15T23:25:00.668Z,5.25
2022-09-15T23:27:27.848Z,5.32
2022-09-15T23:29:54.988Z,5.45
2022-09-15T23:32:22.127Z,4.57
2022-09-15T23:34:49.281Z,5.40
2022-09-15T23:37:16.435Z,5.28
2022-09-15T23:39:43.555Z,4.60
2022-09-15T23:42:12.042Z,4.90
2022-09-15T23:44:40.747Z,5.35
2022-09-15T23:47:07.926Z,4.88
2022-09-15T23:49:35.111Z,5.00
2022-09-15T23:52:02.458Z,4.40
2022-09-15T23:54:29.620Z,4.97
2022-09-15T23:56:56.772Z,4.88
2022-09-15T23:59:23.946Z,4.60
